createdAt,value
2019-05-20T00:00:06.368Z,10.00
2019-05-20T00:01:06.350Z,9.00
2019-05-20T00:02:06.339Z,9.10
2019-05-20T00:03:06.306Z,9.60
2019-05-20T00:04:06.287Z,9.90
2019-05-20T00:05:06.266Z,10.40
2019-05-20T00:06:06.272Z,11.60
2019-05-20T00:07:06.228Z,11.00
2019-05-20T00:08:06.213Z,11.40
2019-05-20T00:09:06.187Z,11.30
2019-05-20T00:10:06.169Z,11.00
2019-05-20T00:11:06.187Z,10.60
2019-05-20T00:12:06.127Z,11.80
2019-05-20T00:13:06.111Z,10.80
2019-05-20T00:14:06.093Z,10.10
2019-05-20T00:15:06.069Z,9.80
2019-05-20T00:16:06.050Z,9.60
2019-05-20T00:17:06.035Z,9.80
2019-05-20T00:18:06.016Z,9.70
2019-05-20T00:19:05.996Z,9.90
2019-05-20T00:20:05.978Z,9.80
2019-05-20T00:21:05.956Z,9.80
2019-05-20T00:22:05.938Z,9.60
2019-05-20T00:23:05.914Z,9.90
2019-05-20T00:24:05.891Z,9.90
2019-05-20T00:25:05.873Z,9.80
2019-05-20T00:26:05.857Z,9.50
2019-05-20T00:27:05.834Z,9.00
2019-05-20T00:28:05.817Z,9.50
2019-05-20T00:29:05.801Z,9.70
2019-05-20T00:30:05.778Z,9.40
2019-05-20T00:31:05.755Z,8.90
2019-05-20T00:32:05.736Z,8.80
2019-05-20T00:33:05.716Z,9.40
2019-05-20T00:34:05.701Z,9.70
2019-05-20T00:35:05.681Z,9.50
2019-05-20T00:36:05.656Z,9.60
2019-05-20T00:37:05.635Z,9.40
2019-05-20T00:38:05.616Z,9.50
2019-05-20T00:39:05.598Z,10.40
2019-05-20T00:40:05.576Z,10.60
2019-05-20T00:41:05.579Z,11.80
2019-05-20T00:42:05.546Z,11.80
2019-05-20T00:43:05.519Z,11.40
2019-05-20T00:44:05.497Z,11.60
2019-05-20T00:45:05.488Z,11.70
2019-05-20T00:46:05.460Z,11.80
2019-05-20T00:47:05.438Z,11.60
2019-05-20T00:48:05.420Z,11.70
2019-05-20T00:49:05.403Z,13.40
2019-05-20T00:50:05.380Z,12.90
2019-05-20T00:51:05.361Z,12.30
2019-05-20T00:52:05.338Z,12.80
2019-05-20T00:53:05.319Z,13.90
2019-05-20T00:54:05.301Z,13.00
2019-05-20T00:55:05.282Z,12.80
2019-05-20T00:56:05.260Z,13.00
2019-05-20T00:57:05.241Z,14.60
2019-05-20T00:58:05.220Z,14.20
2019-05-20T00:59:05.205Z,14.60
2019-05-20T01:00:05.196Z,14.10
2019-05-20T01:01:05.160Z,13.90
2019-05-20T01:02:05.156Z,13.70
2019-05-20T01:03:05.124Z,14.50
2019-05-20T01:04:05.102Z,14.10
2019-05-20T01:05:05.086Z,15.40
2019-05-20T01:06:05.061Z,14.80
2019-05-20T01:07:05.052Z,14.70
2019-05-20T01:08:05.025Z,13.90
2019-05-20T01:09:05.006Z,14.20
2019-05-20T01:10:04.982Z,14.00
2019-05-20T01:11:04.963Z,14.30
2019-05-20T01:12:04.951Z,14.20
2019-05-20T01:13:04.927Z,14.10
2019-05-20T01:14:04.901Z,14.70
2019-05-20T01:15:04.889Z,15.60
2019-05-20T01:16:04.862Z,14.30
2019-05-20T01:17:04.842Z,15.00
2019-05-20T01:18:04.825Z,15.40
2019-05-20T01:19:04.805Z,16.20
2019-05-20T01:20:04.783Z,16.30
2019-05-20T01:21:04.765Z,15.50
2019-05-20T01:22:04.743Z,16.20
2019-05-20T01:23:04.724Z,15.50
2019-05-20T01:24:04.703Z,15.30
2019-05-20T01:25:04.683Z,14.20
2019-05-20T01:26:04.665Z,15.90
2019-05-20T01:27:04.644Z,16.00
2019-05-20T01:28:04.623Z,16.40
2019-05-20T01:29:04.606Z,17.40
2019-05-20T01:30:04.585Z,16.30
2019-05-20T01:31:04.567Z,15.50
2019-05-20T01:32:04.543Z,15.00
2019-05-20T01:33:13.451Z,14.00
2019-05-20T01:34:04.503Z,13.60
2019-05-20T01:35:04.484Z,13.90
2019-05-20T01:36:04.462Z,14.60
2019-05-20T01:37:04.447Z,15.20
2019-05-20T01:38:04.423Z,15.40
2019-05-20T01:39:04.403Z,15.10
2019-05-20T01:40:04.382Z,15.60
2019-05-20T01:41:04.364Z,17.40
2019-05-20T01:42:04.343Z,16.30
2019-05-20T01:43:04.325Z,16.30
2019-05-20T01:44:04.303Z,17.20
2019-05-20T01:45:04.307Z,16.70
2019-05-20T01:46:04.264Z,15.90
2019-05-20T01:47:04.243Z,16.50
2019-05-20T01:48:04.223Z,16.20
2019-05-20T01:49:04.209Z,17.00
2019-05-20T01:50:04.183Z,17.30
2019-05-20T01:51:04.164Z,24.90
2019-05-20T01:52:04.145Z,19.90
2019-05-20T01:53:04.123Z,19.80
2019-05-20T01:54:04.105Z,25.20
2019-05-20T01:55:04.084Z,22.50
2019-05-20T01:56:04.064Z,21.00
2019-05-20T01:57:04.045Z,20.80
2019-05-20T01:58:04.024Z,20.50
2019-05-20T01:59:04.009Z,20.90
2019-05-20T02:00:03.981Z,19.80
2019-05-20T02:01:03.965Z,20.40
2019-05-20T02:02:03.946Z,20.80
2019-05-20T02:03:03.922Z,20.60
2019-05-20T02:04:03.903Z,20.70
2019-05-20T02:05:03.884Z,20.90
2019-05-20T02:06:03.863Z,19.90
2019-05-20T02:07:03.843Z,20.70
2019-05-20T02:08:03.820Z,20.50
2019-05-20T02:09:03.811Z,23.60
2019-05-20T02:10:03.781Z,21.30
2019-05-20T02:11:03.764Z,20.40
2019-05-20T02:12:03.747Z,21.60
2019-05-20T02:13:03.724Z,22.00
2019-05-20T02:14:03.700Z,21.20
2019-05-20T02:15:03.680Z,26.10
2019-05-20T02:16:03.663Z,31.50
2019-05-20T02:17:03.641Z,28.70
2019-05-20T02:18:03.622Z,23.70
2019-05-20T02:19:03.601Z,22.60
2019-05-20T02:20:03.632Z,23.20
2019-05-20T02:21:03.569Z,24.70
2019-05-20T02:22:03.542Z,23.90
2019-05-20T02:23:03.522Z,31.60
2019-05-20T02:24:03.503Z,24.80
2019-05-20T02:25:03.482Z,24.50
2019-05-20T02:26:03.481Z,23.80
2019-05-20T02:27:03.442Z,26.20
2019-05-20T02:28:03.424Z,23.40
2019-05-20T02:29:03.400Z,24.60
2019-05-20T02:30:03.395Z,23.90
2019-05-20T02:31:03.364Z,24.10
2019-05-20T02:32:03.340Z,23.90
2019-05-20T02:33:03.329Z,27.70
2019-05-20T02:34:03.309Z,24.70
2019-05-20T02:35:03.287Z,26.40
2019-05-20T02:36:03.263Z,27.80
2019-05-20T02:37:03.242Z,26.90
2019-05-20T02:38:03.223Z,29.60
2019-05-20T02:39:03.206Z,24.40
2019-05-20T02:40:03.183Z,32.50
2019-05-20T02:41:03.175Z,25.90
2019-05-20T02:42:03.146Z,28.40
2019-05-20T02:43:03.141Z,29.70
2019-05-20T02:44:03.122Z,26.60
2019-05-20T02:45:03.106Z,29.60
2019-05-20T02:46:03.066Z,34.10
2019-05-20T02:47:03.046Z,32.00
2019-05-20T02:48:03.032Z,32.00
2019-05-20T02:49:03.004Z,32.90
2019-05-20T02:50:02.992Z,30.30
2019-05-20T02:51:02.960Z,31.40
2019-05-20T02:52:02.952Z,32.80
2019-05-20T02:53:02.955Z,33.00
2019-05-20T02:54:02.992Z,32.30
2019-05-20T02:55:02.899Z,35.00
2019-05-20T02:56:02.888Z,43.10
2019-05-20T02:57:02.845Z,42.20
2019-05-20T02:58:02.830Z,44.10
2019-05-20T02:59:02.829Z,47.90
2019-05-20T03:00:02.797Z,51.00
2019-05-20T03:01:02.771Z,54.90
2019-05-20T03:02:02.775Z,55.80
2019-05-20T03:03:02.751Z,53.60
2019-05-20T03:04:11.738Z,57.40
2019-05-20T03:05:02.699Z,63.30
2019-05-20T03:06:02.682Z,59.70
2019-05-20T03:07:02.678Z,62.20
2019-05-20T03:08:02.634Z,63.50
2019-05-20T03:09:02.630Z,60.60
2019-05-20T03:10:02.677Z,66.90
2019-05-20T03:11:02.582Z,60.90
2019-05-20T03:12:02.545Z,70.70
2019-05-20T03:13:02.534Z,65.00
2019-05-20T03:14:02.516Z,71.30
2019-05-20T03:15:02.488Z,63.00
2019-05-20T03:16:02.471Z,61.90
2019-05-20T03:17:02.453Z,70.00
2019-05-20T03:18:02.434Z,61.90
2019-05-20T03:19:02.453Z,62.40
2019-05-20T03:20:02.396Z,61.00
2019-05-20T03:21:02.370Z,69.70
2019-05-20T03:22:02.372Z,55.40
2019-05-20T03:23:02.351Z,69.10
2019-05-20T03:24:02.327Z,67.00
2019-05-20T03:25:02.304Z,59.40
2019-05-20T03:26:02.296Z,74.40
2019-05-20T03:27:02.262Z,66.80
2019-05-20T03:28:02.263Z,66.00
2019-05-20T03:29:02.223Z,62.80
2019-05-20T03:30:02.203Z,70.40
2019-05-20T03:31:02.249Z,65.90
2019-05-20T03:32:02.173Z,75.80
2019-05-20T03:33:02.167Z,56.90
2019-05-20T03:34:02.147Z,67.60
2019-05-20T03:35:02.361Z,60.90
2019-05-20T03:36:02.095Z,73.90
2019-05-20T03:37:02.083Z,59.40
2019-05-20T03:38:02.045Z,68.70
2019-05-20T03:39:02.037Z,64.50
2019-05-20T03:40:02.003Z,61.40
2019-05-20T03:41:01.983Z,65.00
2019-05-20T03:42:01.965Z,69.70
2019-05-20T03:43:01.947Z,68.80
2019-05-20T03:44:01.937Z,57.90
2019-05-20T03:45:01.955Z,72.00
2019-05-20T03:46:01.925Z,66.10
2019-05-20T03:47:01.874Z,67.60
2019-05-20T03:48:01.872Z,64.20
2019-05-20T03:49:01.853Z,61.20
2019-05-20T03:50:01.836Z,64.60
2019-05-20T03:51:01.801Z,71.20
2019-05-20T03:52:01.800Z,62.50
2019-05-20T03:53:01.766Z,64.60
2019-05-20T03:54:01.742Z,63.70
2019-05-20T03:55:01.714Z,73.70
2019-05-20T03:56:01.686Z,67.10
2019-05-20T03:57:01.691Z,64.00
2019-05-20T03:58:01.667Z,61.10
2019-05-20T03:59:01.730Z,60.90
2019-05-20T04:00:01.640Z,54.60
2019-05-20T04:01:01.636Z,55.10
2019-05-20T04:02:01.580Z,53.10
2019-05-20T04:03:01.555Z,59.60
2019-05-20T04:04:01.533Z,68.40
2019-05-20T04:05:03.177Z,53.00
2019-05-20T04:06:01.515Z,70.80
2019-05-20T04:07:01.485Z,51.70
2019-05-20T04:08:01.494Z,52.20
2019-05-20T04:09:01.463Z,55.10
2019-05-20T04:10:01.426Z,49.30
2019-05-20T04:11:01.409Z,53.80
2019-05-20T04:12:01.390Z,58.90
2019-05-20T04:13:01.367Z,50.30
2019-05-20T04:14:01.340Z,48.40
2019-05-20T04:15:01.324Z,47.60
2019-05-20T04:16:01.385Z,47.70
2019-05-20T04:17:01.293Z,49.90
2019-05-20T04:18:01.264Z,52.10
2019-05-20T04:19:01.245Z,46.80
2019-05-20T04:20:01.249Z,46.70
2019-05-20T04:21:01.233Z,46.30
2019-05-20T04:22:01.227Z,50.10
2019-05-20T04:23:01.192Z,51.20
2019-05-20T04:24:02.122Z,46.50
2019-05-20T04:25:01.169Z,55.70
2019-05-20T04:26:01.113Z,50.90
2019-05-20T04:27:01.105Z,60.50
2019-05-20T04:28:01.074Z,47.80
2019-05-20T04:29:01.061Z,52.80
2019-05-20T04:30:01.052Z,54.00
2019-05-20T04:31:01.056Z,55.10
2019-05-20T04:32:01.026Z,49.70
2019-05-20T04:33:00.972Z,55.20
2019-05-20T04:34:00.955Z,60.30
2019-05-20T04:35:19.791Z,55.80
2019-05-20T04:36:00.915Z,55.40
2019-05-20T04:37:00.903Z,50.90
2019-05-20T04:38:00.884Z,55.90
2019-05-20T04:39:00.870Z,49.20
2019-05-20T04:40:00.851Z,57.30
2019-05-20T04:41:00.831Z,59.10
2019-05-20T04:42:00.829Z,54.40
2019-05-20T04:43:00.799Z,50.30
2019-05-20T04:44:00.764Z,46.10
2019-05-20T04:45:00.769Z,60.40
2019-05-20T04:46:00.740Z,54.50
2019-05-20T04:47:00.721Z,61.50
2019-05-20T04:48:00.714Z,58.40
2019-05-20T04:49:00.691Z,63.90
2019-05-20T04:50:00.654Z,65.80
2019-05-20T04:51:00.658Z,60.30
2019-05-20T04:52:00.630Z,54.50
2019-05-20T04:53:00.610Z,56.00
2019-05-20T04:54:00.593Z,56.70
2019-05-20T04:55:00.608Z,60.80
2019-05-20T04:56:00.542Z,60.80
2019-05-20T04:57:00.523Z,68.20
2019-05-20T04:58:00.494Z,63.50
2019-05-20T04:59:00.496Z,63.40
2019-05-20T05:00:00.488Z,63.30
2019-05-20T05:01:00.464Z,63.80
2019-05-20T05:02:00.444Z,62.90
2019-05-20T05:03:00.425Z,63.50
2019-05-20T05:04:00.381Z,64.10
2019-05-20T05:05:00.363Z,68.10
2019-05-20T05:06:00.358Z,63.40
2019-05-20T05:07:00.336Z,65.10
2019-05-20T05:08:00.305Z,61.60
2019-05-20T05:09:00.306Z,65.10
2019-05-20T05:10:00.277Z,68.70
2019-05-20T05:11:00.246Z,65.80
2019-05-20T05:12:00.233Z,69.30
2019-05-20T05:13:00.207Z,67.20
2019-05-20T05:14:00.222Z,64.30
2019-05-20T05:15:00.202Z,69.20
2019-05-20T05:16:00.170Z,60.90
2019-05-20T05:17:00.136Z,60.70
2019-05-20T05:18:00.119Z,65.40
2019-05-20T05:19:00.113Z,60.90
2019-05-20T05:20:00.083Z,66.50
2019-05-20T05:21:00.049Z,65.80
2019-05-20T05:22:00.056Z,68.60
2019-05-20T05:23:00.020Z,65.40
2019-05-20T05:24:00.012Z,65.40
2019-05-20T05:24:59.993Z,67.60
2019-05-20T05:25:59.972Z,65.70
2019-05-20T05:26:59.945Z,63.30
2019-05-20T05:27:59.930Z,64.80
2019-05-20T05:28:59.903Z,66.10
2019-05-20T05:29:59.901Z,64.80
2019-05-20T05:30:59.892Z,67.50
2019-05-20T05:31:59.847Z,61.10
2019-05-20T05:32:59.826Z,63.30
2019-05-20T05:33:59.805Z,62.60
2019-05-20T05:34:59.800Z,60.70
2019-05-20T05:35:59.768Z,57.50
2019-05-20T05:36:59.767Z,59.20
2019-05-20T05:37:59.826Z,58.80
2019-05-20T05:38:59.746Z,65.20
2019-05-20T05:39:59.694Z,64.20
2019-05-20T05:40:59.676Z,64.50
2019-05-20T05:41:59.681Z,57.80
2019-05-20T05:42:59.636Z,62.00
2019-05-20T05:43:59.626Z,64.30
2019-05-20T05:44:59.645Z,62.70
2019-05-20T05:45:59.576Z,60.10
2019-05-20T05:46:59.558Z,65.70
2019-05-20T05:47:59.541Z,65.70
2019-05-20T05:48:59.520Z,59.30
2019-05-20T05:49:59.515Z,65.40
2019-05-20T05:50:59.516Z,64.60
2019-05-20T05:51:59.541Z,63.50
2019-05-20T05:52:59.477Z,62.50
2019-05-20T05:53:59.439Z,59.80
2019-05-20T05:54:59.419Z,60.40
2019-05-20T05:55:59.417Z,60.40
2019-05-20T05:56:59.379Z,61.00
2019-05-20T05:57:59.351Z,62.60
2019-05-20T05:58:59.346Z,59.10
2019-05-20T05:59:59.338Z,60.20
2019-05-20T06:00:59.298Z,66.60
2019-05-20T06:01:59.305Z,69.50
2019-05-20T06:02:59.277Z,64.70
2019-05-20T06:03:59.244Z,64.00
2019-05-20T06:04:59.259Z,62.30
2019-05-20T06:06:11.404Z,64.50
2019-05-20T06:06:59.204Z,72.50
2019-05-20T06:07:59.181Z,70.50
2019-05-20T06:08:59.209Z,73.40
2019-05-20T06:09:59.154Z,79.50
2019-05-20T06:10:59.107Z,73.30
2019-05-20T06:11:59.089Z,85.50
2019-05-20T06:12:59.091Z,86.20
2019-05-20T06:13:59.071Z,84.90
2019-05-20T06:14:59.049Z,97.80
2019-05-20T06:15:59.046Z,95.90
2019-05-20T06:16:59.016Z,98.10
2019-05-20T06:17:58.977Z,96.50
2019-05-20T06:18:58.989Z,97.20
2019-05-20T06:19:58.941Z,95.40
2019-05-20T06:20:58.919Z,92.20
2019-05-20T06:21:58.932Z,85.80
2019-05-20T06:22:58.941Z,77.40
2019-05-20T06:23:58.910Z,84.10
2019-05-20T06:24:58.848Z,84.50
2019-05-20T06:25:58.845Z,88.20
2019-05-20T06:26:58.814Z,87.90
2019-05-20T06:27:58.802Z,88.70
2019-05-20T06:28:58.793Z,85.00
2019-05-20T06:29:58.881Z,88.10
2019-05-20T06:30:58.732Z,88.60
2019-05-20T06:31:58.724Z,76.80
2019-05-20T06:32:58.701Z,87.80
2019-05-20T06:33:58.709Z,84.80
2019-05-20T06:34:58.677Z,85.70
2019-05-20T06:35:58.638Z,83.90
2019-05-20T06:36:58.625Z,74.80
2019-05-20T06:37:58.605Z,83.00
2019-05-20T06:38:58.582Z,74.90
2019-05-20T06:39:58.576Z,73.90
2019-05-20T06:40:58.557Z,74.80
2019-05-20T06:41:58.546Z,73.70
2019-05-20T06:42:58.563Z,71.00
2019-05-20T06:43:58.514Z,75.70
2019-05-20T06:44:58.510Z,78.10
2019-05-20T06:45:58.489Z,76.50
2019-05-20T06:46:58.433Z,77.00
2019-05-20T06:47:58.429Z,77.20
2019-05-20T06:48:58.406Z,75.20
2019-05-20T06:49:58.395Z,79.00
2019-05-20T06:50:58.370Z,81.50
2019-05-20T06:51:58.371Z,69.40
2019-05-20T06:52:58.355Z,77.90
2019-05-20T06:53:58.359Z,74.90
2019-05-20T06:54:58.290Z,73.60
2019-05-20T06:55:58.292Z,78.70
2019-05-20T06:56:58.254Z,78.40
2019-05-20T06:57:58.249Z,76.50
2019-05-20T06:58:58.232Z,79.20
2019-05-20T06:59:58.203Z,81.90
2019-05-20T07:00:58.270Z,78.70
2019-05-20T07:01:58.186Z,76.50
2019-05-20T07:02:58.155Z,76.70
2019-05-20T07:03:58.140Z,78.70
2019-05-20T07:04:58.127Z,77.90
2019-05-20T07:05:58.091Z,72.80
2019-05-20T07:06:58.082Z,70.80
2019-05-20T07:08:01.058Z,79.90
2019-05-20T07:08:58.030Z,81.60
2019-05-20T07:09:58.025Z,80.50
2019-05-20T07:10:58.003Z,80.00
2019-05-20T07:11:57.999Z,78.60
2019-05-20T07:12:57.951Z,81.30
2019-05-20T07:13:57.984Z,84.80
2019-05-20T07:14:57.951Z,86.90
2019-05-20T07:15:57.928Z,90.60
2019-05-20T07:16:57.892Z,92.10
2019-05-20T07:17:57.902Z,96.10
2019-05-20T07:18:57.844Z,93.10
2019-05-20T07:19:57.834Z,101.60
2019-05-20T07:20:57.839Z,96.00
2019-05-20T07:21:57.797Z,101.90
2019-05-20T07:22:57.773Z,98.30
2019-05-20T07:23:57.768Z,96.70
2019-05-20T07:24:57.738Z,103.40
2019-05-20T07:25:57.744Z,105.70
2019-05-20T07:26:57.723Z,100.40
2019-05-20T07:27:57.706Z,97.70
2019-05-20T07:28:57.658Z,97.90
2019-05-20T07:29:57.648Z,101.20
2019-05-20T07:30:57.712Z,95.40
2019-05-20T07:31:57.626Z,87.90
2019-05-20T07:32:57.598Z,95.10
2019-05-20T07:33:57.571Z,93.80
2019-05-20T07:34:57.552Z,98.30
2019-05-20T07:35:57.557Z,103.10
2019-05-20T07:37:03.066Z,99.40
2019-05-20T07:37:57.510Z,94.70
2019-05-20T07:38:57.475Z,92.90
2019-05-20T07:39:57.455Z,95.80
2019-05-20T07:40:57.435Z,98.40
2019-05-20T07:41:57.432Z,94.60
2019-05-20T07:42:57.428Z,97.10
2019-05-20T07:43:57.380Z,94.60
2019-05-20T07:44:57.369Z,96.00
2019-05-20T07:45:57.375Z,92.90
2019-05-20T07:46:57.333Z,94.10
2019-05-20T07:47:57.324Z,95.50
2019-05-20T07:48:57.295Z,92.40
2019-05-20T07:49:57.304Z,90.50
2019-05-20T07:50:57.266Z,89.10
2019-05-20T07:51:57.241Z,89.40
2019-05-20T07:53:00.340Z,93.70
2019-05-20T07:53:57.247Z,96.00
2019-05-20T07:54:57.177Z,85.80
2019-05-20T07:55:57.179Z,93.10
2019-05-20T07:56:57.152Z,93.10
2019-05-20T07:57:57.160Z,97.90
2019-05-20T07:58:57.116Z,98.10
2019-05-20T07:59:57.102Z,93.70
2019-05-20T08:00:57.089Z,96.40
2019-05-20T08:01:57.071Z,96.30
2019-05-20T08:02:57.055Z,91.30
2019-05-20T08:03:57.038Z,96.60
2019-05-20T08:04:57.043Z,93.80
2019-05-20T08:05:57.888Z,94.90
2019-05-20T08:07:26.168Z,94.00
2019-05-20T08:09:01.662Z,91.10
2019-05-20T08:10:01.442Z,89.90
2019-05-20T08:11:01.363Z,93.40
2019-05-20T08:12:01.357Z,95.70
2019-05-20T08:13:01.337Z,91.50
2019-05-20T08:14:01.334Z,88.50
2019-05-20T08:15:01.317Z,89.80
2019-05-20T08:16:01.272Z,84.90
2019-05-20T08:17:02.383Z,82.90
2019-05-20T08:18:01.510Z,73.50
2019-05-20T08:19:01.217Z,73.80
2019-05-20T08:20:01.208Z,77.40
2019-05-20T08:21:01.196Z,76.70
2019-05-20T08:22:01.206Z,77.70
2019-05-20T08:23:01.176Z,73.90
2019-05-20T08:24:10.022Z,70.30
2019-05-20T08:26:05.652Z,62.40
2019-05-20T08:27:05.571Z,66.10
2019-05-20T08:28:05.553Z,69.00
2019-05-20T08:29:05.569Z,72.70
2019-05-20T08:30:05.541Z,79.40
2019-05-20T08:31:05.500Z,78.50
2019-05-20T08:32:05.475Z,72.60
2019-05-20T08:33:05.461Z,75.10
2019-05-20T08:34:05.445Z,69.70
2019-05-20T08:35:05.432Z,74.30
2019-05-20T08:36:05.461Z,68.00
2019-05-20T08:37:05.432Z,71.80
2019-05-20T08:38:05.370Z,73.90
2019-05-20T08:39:05.386Z,80.10
2019-05-20T08:40:05.367Z,78.00
2019-05-20T08:41:05.352Z,81.50
2019-05-20T08:42:05.299Z,82.60
2019-05-20T08:43:05.353Z,82.40
2019-05-20T08:44:05.303Z,83.30
2019-05-20T08:45:05.333Z,81.30
2019-05-20T08:46:05.263Z,76.00
2019-05-20T08:47:05.225Z,72.20
2019-05-20T08:48:05.210Z,66.40
2019-05-20T08:49:10.416Z,66.00
2019-05-20T08:51:37.283Z,67.50
2019-05-20T08:52:37.321Z,63.60
2019-05-20T08:53:37.303Z,66.90
2019-05-20T08:54:40.240Z,63.80
2019-05-20T08:55:37.267Z,62.90
2019-05-20T08:56:37.900Z,58.90
2019-05-20T08:57:37.161Z,60.80
2019-05-20T08:58:37.211Z,62.30
2019-05-20T08:59:37.127Z,61.30
2019-05-20T09:00:37.159Z,64.50
2019-05-20T09:01:37.115Z,61.60
2019-05-20T09:02:37.227Z,56.40
2019-05-20T09:03:37.041Z,58.30
2019-05-20T09:04:37.038Z,58.00
2019-05-20T09:05:37.023Z,57.60
2019-05-20T09:06:37.031Z,59.50
2019-05-20T09:07:37.240Z,56.60
2019-05-20T09:08:36.971Z,55.20
2019-05-20T09:09:36.983Z,53.50
2019-05-20T09:10:39.493Z,55.60
2019-05-20T09:11:36.933Z,56.50
2019-05-20T09:12:36.897Z,53.60
2019-05-20T09:13:36.855Z,54.10
2019-05-20T09:14:40.399Z,56.20
2019-05-20T09:15:36.871Z,58.20
2019-05-20T09:16:37.556Z,58.80
2019-05-20T09:17:39.002Z,63.20
2019-05-20T09:18:37.556Z,59.70
2019-05-20T09:19:36.778Z,56.40
2019-05-20T09:20:36.777Z,59.80
2019-05-20T09:21:36.887Z,61.70
2019-05-20T09:22:40.302Z,59.40
2019-05-20T09:23:36.984Z,60.70
2019-05-20T09:24:37.481Z,60.40
2019-05-20T09:25:36.891Z,59.50
2019-05-20T09:26:37.703Z,57.70
2019-05-20T09:27:36.625Z,58.10
2019-05-20T09:29:38.188Z,65.60
2019-05-20T09:30:36.545Z,61.30
2019-05-20T09:31:37.030Z,58.90
2019-05-20T09:32:37.509Z,58.40
2019-05-20T09:33:36.527Z,54.20
2019-05-20T09:34:36.519Z,57.30
2019-05-20T09:35:36.479Z,52.80
2019-05-20T09:36:36.478Z,54.90
2019-05-20T09:37:36.488Z,51.70
2019-05-20T09:38:37.199Z,52.40
2019-05-20T09:39:36.412Z,55.20
2019-05-20T09:40:36.401Z,62.00
2019-05-20T09:41:36.372Z,67.80
2019-05-20T09:42:36.348Z,65.70
2019-05-20T09:43:36.346Z,58.80
2019-05-20T09:44:36.354Z,58.60
2019-05-20T09:45:36.285Z,56.00
2019-05-20T09:46:36.330Z,56.20
2019-05-20T09:47:36.244Z,54.80
2019-05-20T09:48:36.253Z,56.50
2019-05-20T09:49:36.238Z,54.90
2019-05-20T09:50:36.212Z,54.90
2019-05-20T09:51:36.177Z,51.00
2019-05-20T09:52:36.417Z,49.50
2019-05-20T09:53:36.262Z,50.10
2019-05-20T09:54:36.176Z,48.00
2019-05-20T09:55:36.323Z,47.40
2019-05-20T09:56:36.105Z,46.30
2019-05-20T09:57:36.091Z,49.10
2019-05-20T09:58:36.056Z,46.50
2019-05-20T09:59:43.521Z,45.20
2019-05-20T10:00:36.039Z,42.90
2019-05-20T10:01:39.823Z,46.00
2019-05-20T10:02:38.213Z,44.80
2019-05-20T10:03:35.961Z,42.70
2019-05-20T10:04:35.975Z,42.30
2019-05-20T10:05:37.414Z,39.60
2019-05-20T10:06:35.913Z,39.40
2019-05-20T10:07:35.905Z,40.10
2019-05-20T10:08:40.974Z,40.90
2019-05-20T10:09:35.890Z,40.20
2019-05-20T10:10:38.086Z,42.00
2019-05-20T10:11:35.824Z,40.90
2019-05-20T10:12:45.938Z,44.20
2019-05-20T10:13:35.784Z,45.70
2019-05-20T10:14:35.776Z,50.00
2019-05-20T10:15:35.774Z,48.20
2019-05-20T10:16:35.759Z,47.10
2019-05-20T10:17:35.715Z,44.20
2019-05-20T10:18:37.977Z,47.10
2019-05-20T10:19:35.687Z,46.50
2019-05-20T10:20:35.770Z,44.40
2019-05-20T10:21:35.653Z,49.80
2019-05-20T10:22:35.612Z,51.00
2019-05-20T10:23:35.625Z,50.70
2019-05-20T10:24:35.723Z,51.50
2019-05-20T10:25:35.580Z,50.30
2019-05-20T10:26:35.592Z,48.50
2019-05-20T10:27:35.550Z,46.80
2019-05-20T10:28:35.517Z,47.00
2019-05-20T10:29:35.496Z,46.70
2019-05-20T10:30:35.474Z,46.10
2019-05-20T10:31:35.488Z,45.20
2019-05-20T10:32:35.468Z,43.30
2019-05-20T10:33:37.099Z,42.10
2019-05-20T10:34:37.256Z,44.10
2019-05-20T10:35:35.406Z,44.20
2019-05-20T10:36:35.400Z,43.60
2019-05-20T10:37:35.374Z,45.40
2019-05-20T10:38:35.339Z,45.10
2019-05-20T10:39:35.402Z,44.10
2019-05-20T10:40:35.319Z,41.80
2019-05-20T10:41:35.298Z,41.50
2019-05-20T10:42:35.292Z,42.20
2019-05-20T10:43:35.280Z,38.40
2019-05-20T10:44:35.261Z,37.90
2019-05-20T10:45:35.236Z,40.70
2019-05-20T10:46:35.217Z,37.30
2019-05-20T10:47:35.192Z,36.10
2019-05-20T10:48:35.197Z,35.90
2019-05-20T10:49:35.155Z,36.00
2019-05-20T10:50:35.169Z,38.50
2019-05-20T10:51:35.113Z,40.80
2019-05-20T10:52:35.133Z,32.40
2019-05-20T10:53:35.115Z,32.40
2019-05-20T10:54:35.089Z,33.10
2019-05-20T10:55:35.067Z,32.40
2019-05-20T10:56:35.048Z,31.40
2019-05-20T10:57:35.005Z,34.10
2019-05-20T10:58:35.006Z,35.40
2019-05-20T10:59:34.982Z,35.70
2019-05-20T11:00:34.964Z,38.20
2019-05-20T11:01:34.946Z,37.50
2019-05-20T11:02:34.953Z,37.30
2019-05-20T11:03:34.936Z,36.80
2019-05-20T11:04:35.622Z,34.80
2019-05-20T11:05:34.923Z,33.50
2019-05-20T11:06:34.899Z,34.00
2019-05-20T11:07:34.859Z,36.50
2019-05-20T11:08:34.827Z,35.60
2019-05-20T11:09:34.811Z,37.20
2019-05-20T11:10:34.812Z,40.30
2019-05-20T11:11:34.765Z,41.50
2019-05-20T11:12:34.770Z,42.20
2019-05-20T11:13:34.737Z,39.40
2019-05-20T11:14:34.772Z,40.90
2019-05-20T11:15:34.854Z,39.80
2019-05-20T11:16:34.815Z,41.00
2019-05-20T11:17:34.691Z,41.40
2019-05-20T11:18:34.657Z,42.30
2019-05-20T11:19:34.841Z,42.70
2019-05-20T11:20:34.619Z,40.50
2019-05-20T11:21:34.619Z,39.50
2019-05-20T11:22:34.661Z,36.80
2019-05-20T11:23:34.583Z,36.40
2019-05-20T11:24:34.553Z,37.10
2019-05-20T11:25:34.550Z,37.30
2019-05-20T11:26:34.544Z,35.50
2019-05-20T11:27:34.616Z,34.30
2019-05-20T11:28:34.492Z,34.70
2019-05-20T11:29:34.503Z,36.80
2019-05-20T11:30:34.475Z,36.90
2019-05-20T11:31:34.463Z,38.10
2019-05-20T11:32:34.427Z,39.80
2019-05-20T11:33:34.432Z,39.20
2019-05-20T11:34:34.455Z,39.00
2019-05-20T11:35:34.387Z,38.80
2019-05-20T11:36:34.359Z,40.50
2019-05-20T11:37:34.347Z,40.90
2019-05-20T11:38:34.318Z,39.20
2019-05-20T11:39:34.346Z,39.60
2019-05-20T11:40:34.282Z,39.00
2019-05-20T11:41:52.713Z,41.70
2019-05-20T11:42:34.279Z,41.30
2019-05-20T11:43:34.243Z,40.40
2019-05-20T11:44:34.237Z,42.10
2019-05-20T11:45:34.213Z,38.40
2019-05-20T11:46:34.185Z,39.40
2019-05-20T11:47:34.179Z,40.40
2019-05-20T11:48:34.246Z,40.40
2019-05-20T11:49:34.138Z,43.70
2019-05-20T11:50:34.112Z,49.60
2019-05-20T11:51:34.259Z,50.60
2019-05-20T11:52:34.116Z,52.70
2019-05-20T11:53:34.071Z,50.20
2019-05-20T11:54:34.082Z,47.50
2019-05-20T11:55:34.056Z,44.20
2019-05-20T11:56:34.019Z,43.30
2019-05-20T11:57:33.996Z,45.30
2019-05-20T11:58:33.972Z,46.30
2019-05-20T11:59:33.973Z,41.60
2019-05-20T12:00:33.954Z,40.70
2019-05-20T12:01:33.922Z,42.50
2019-05-20T12:02:33.917Z,41.50
2019-05-20T12:03:33.901Z,43.60
2019-05-20T12:04:33.873Z,43.40
2019-05-20T12:05:33.865Z,42.60
2019-05-20T12:06:33.846Z,45.10
2019-05-20T12:07:33.837Z,43.90
2019-05-20T12:08:33.845Z,42.70
2019-05-20T12:09:48.143Z,42.90
2019-05-20T12:10:33.763Z,39.80
2019-05-20T12:11:33.746Z,40.70
2019-05-20T12:12:33.749Z,40.00
2019-05-20T12:13:33.716Z,37.70
2019-05-20T12:14:33.695Z,37.40
2019-05-20T12:15:33.716Z,38.10
2019-05-20T12:16:33.670Z,38.90
2019-05-20T12:17:33.673Z,39.10
2019-05-20T12:18:33.654Z,37.50
2019-05-20T12:19:33.626Z,37.70
2019-05-20T12:20:33.621Z,38.00
2019-05-20T12:21:33.578Z,36.80
2019-05-20T12:22:33.573Z,38.90
2019-05-20T12:23:33.560Z,38.70
2019-05-20T12:24:33.522Z,39.70
2019-05-20T12:25:33.518Z,39.60
2019-05-20T12:26:33.488Z,38.00
2019-05-20T12:27:33.498Z,37.90
2019-05-20T12:28:33.457Z,44.00
2019-05-20T12:29:33.443Z,43.10
2019-05-20T12:30:33.420Z,42.90
2019-05-20T12:31:33.441Z,40.00
2019-05-20T12:32:33.399Z,42.30
2019-05-20T12:33:33.384Z,42.60
2019-05-20T12:34:33.349Z,41.20
2019-05-20T12:35:33.349Z,42.60
2019-05-20T12:36:33.318Z,41.10
2019-05-20T12:37:33.301Z,41.00
2019-05-20T12:38:33.285Z,47.50
2019-05-20T12:39:33.320Z,50.50
2019-05-20T12:40:33.296Z,44.30
2019-05-20T12:41:33.290Z,43.10
2019-05-20T12:42:33.235Z,41.60
2019-05-20T12:43:33.221Z,41.00
2019-05-20T12:44:33.213Z,41.60
2019-05-20T12:45:33.181Z,40.80
2019-05-20T12:46:33.145Z,40.90
2019-05-20T12:47:33.155Z,43.80
2019-05-20T12:48:33.120Z,40.40
2019-05-20T12:49:33.251Z,39.40
2019-05-20T12:50:33.090Z,40.90
2019-05-20T12:51:33.066Z,41.40
2019-05-20T12:52:33.044Z,41.70
2019-05-20T12:53:33.063Z,42.30
2019-05-20T12:54:33.049Z,44.40
2019-05-20T12:55:33.010Z,44.50
2019-05-20T12:56:33.018Z,44.00
2019-05-20T12:57:32.994Z,43.60